Terminal Aerodrome Forecast
Issued by NWS

Home | Current Version | Previous Version | Text Only | Print | Product List | Glossary On
Versions: 1 2 3 4 5 6 7 8 9 10 11 12 13 14 15 16 17 18 19 20 21 22 23 24 25 26 27 28 29 30 31 32 33 34 35 36 37 38 39 40
286
FTUS43 KGRB 132338
TAFATW
TAF
KATW 132338Z 1400/1424 30006KT P6SM -SHRA SCT025 OVC050
      TEMPO 1400/1402 BKN025
     FM140300 34005KT P6SM SCT050 BKN120
     FM140800 03008KT P6SM BKN120
     FM141500 06010G15KT P6SM SCT035 BKN050
     FM141800 07011G17KT P6SM -RA OVC020
     FM142000 09011G17KT 5SM -RA OVC012
     FM142200 11011KT 3SM RA BR OVC005=

USA.gov is the U.S. government's official web portal to all federal, state and local government web resources and services.